sensor_id;sensor_type;location;lat;lon;timestamp;P1;durP1;ratioP1;P2;durP2;ratioP2
24337;SDS011;12457;50.832;4.346;2022-12-07T00:01:18;27.30;;;19.02;;
24337;SDS011;12457;50.832;4.346;2022-12-07T00:03:49;31.42;;;18.60;;
24337;SDS011;12457;50.832;4.346;2022-12-07T00:06:17;26.98;;;18.90;;
24337;SDS011;12457;50.832;4.346;2022-12-07T00:08:43;26.38;;;20.10;;
24337;SDS011;12457;50.832;4.346;2022-12-07T00:11:11;37.90;;;19.92;;
24337;SDS011;12457;50.832;4.346;2022-12-07T00:13:38;28.02;;;20.00;;
24337;SDS011;12457;50.832;4.346;2022-12-07T00:16:05;29.95;;;19.92;;
24337;SDS011;12457;50.832;4.346;2022-12-07T00:18:33;32.67;;;20.65;;
24337;SDS011;12457;50.832;4.346;2022-12-07T00:23:39;27.85;;;20.10;;
24337;SDS011;12457;50.832;4.346;2022-12-07T00:26:06;36.88;;;21.67;;
24337;SDS011;12457;50.832;4.346;2022-12-07T00:28:36;33.13;;;21.92;;
24337;SDS011;12457;50.832;4.346;2022-12-07T00:31:03;35.40;;;21.60;;
24337;SDS011;12457;50.832;4.346;2022-12-07T00:33:31;39.90;;;22.42;;
24337;SDS011;12457;50.832;4.346;2022-12-07T00:35:57;38.33;;;24.02;;
24337;SDS011;12457;50.832;4.346;2022-12-07T00:38:24;33.65;;;23.38;;
24337;SDS011;12457;50.832;4.346;2022-12-07T00:40:59;41.60;;;23.17;;
24337;SDS011;12457;50.832;4.346;2022-12-07T00:43:28;35.92;;;21.92;;
24337;SDS011;12457;50.832;4.346;2022-12-07T00:45:54;34.75;;;22.60;;
24337;SDS011;12457;50.832;4.346;2022-12-07T00:48:21;39.85;;;23.05;;
24337;SDS011;12457;50.832;4.346;2022-12-07T00:50:47;36.53;;;23.52;;
24337;SDS011;12457;50.832;4.346;2022-12-07T00:53:13;38.10;;;22.35;;
24337;SDS011;12457;50.832;4.346;2022-12-07T00:55:39;32.95;;;23.40;;
24337;SDS011;12457;50.832;4.346;2022-12-07T00:58:05;30.30;;;20.80;;
24337;SDS011;12457;50.832;4.346;2022-12-07T01:00:31;40.97;;;22.20;;
24337;SDS011;12457;50.832;4.346;2022-12-07T01:02:57;35.05;;;22.13;;
24337;SDS011;12457;50.832;4.346;2022-12-07T01:05:23;37.28;;;22.65;;
24337;SDS011;12457;50.832;4.346;2022-12-07T01:07:49;39.50;;;21.58;;
24337;SDS011;12457;50.832;4.346;2022-12-07T01:10:14;39.00;;;21.98;;
24337;SDS011;12457;50.832;4.346;2022-12-07T01:12:40;32.58;;;21.95;;
24337;SDS011;12457;50.832;4.346;2022-12-07T01:15:06;33.30;;;21.33;;
24337;SDS011;12457;50.832;4.346;2022-12-07T01:17:32;35.70;;;22.73;;
24337;SDS011;12457;50.832;4.346;2022-12-07T01:19:59;30.90;;;20.73;;
24337;SDS011;12457;50.832;4.346;2022-12-07T01:22:24;32.95;;;22.42;;
24337;SDS011;12457;50.832;4.346;2022-12-07T01:24:50;36.05;;;23.42;;
24337;SDS011;12457;50.832;4.346;2022-12-07T01:27:16;41.08;;;22.25;;
24337;SDS011;12457;50.832;4.346;2022-12-07T01:29:42;38.75;;;23.50;;
24337;SDS011;12457;50.832;4.346;2022-12-07T01:32:07;34.58;;;22.52;;
24337;SDS011;12457;50.832;4.346;2022-12-07T01:34:33;37.30;;;23.13;;
24337;SDS011;12457;50.832;4.346;2022-12-07T01:36:59;36.15;;;21.33;;
24337;SDS011;12457;50.832;4.346;2022-12-07T01:39:25;34.63;;;22.33;;
24337;SDS011;12457;50.832;4.346;2022-12-07T01:41:51;34.58;;;22.65;;
24337;SDS011;12457;50.832;4.346;2022-12-07T01:44:22;39.72;;;23.60;;
24337;SDS011;12457;50.832;4.346;2022-12-07T01:46:53;33.42;;;23.17;;
24337;SDS011;12457;50.832;4.346;2022-12-07T01:49:23;38.45;;;23.40;;
24337;SDS011;12457;50.832;4.346;2022-12-07T01:52:13;30.20;;;23.10;;
24337;SDS011;12457;50.832;4.346;2022-12-07T01:54:46;37.28;;;22.20;;
24337;SDS011;12457;50.832;4.346;2022-12-07T01:57:13;35.13;;;21.88;;
24337;SDS011;12457;50.832;4.346;2022-12-07T01:59:41;37.55;;;23.70;;
24337;SDS011;12457;50.832;4.346;2022-12-07T02:02:10;38.00;;;23.00;;
24337;SDS011;12457;50.832;4.346;2022-12-07T02:04:42;35.58;;;22.85;;
24337;SDS011;12457;50.832;4.346;2022-12-07T02:07:09;31.13;;;21.83;;
24337;SDS011;12457;50.832;4.346;2022-12-07T02:09:35;36.20;;;22.50;;
24337;SDS011;12457;50.832;4.346;2022-12-07T02:12:01;38.78;;;22.95;;
24337;SDS011;12457;50.832;4.346;2022-12-07T02:14:27;34.83;;;20.83;;
24337;SDS011;12457;50.832;4.346;2022-12-07T02:17:14;35.25;;;22.88;;
24337;SDS011;12457;50.832;4.346;2022-12-07T02:30:58;28.45;;;19.55;;
24337;SDS011;12457;50.832;4.346;2022-12-07T02:33:35;30.75;;;20.70;;
24337;SDS011;12457;50.832;4.346;2022-12-07T02:36:28;32.53;;;21.20;;
24337;SDS011;12457;50.832;4.346;2022-12-07T02:39:07;33.30;;;20.35;;
24337;SDS011;12457;50.832;4.346;2022-12-07T02:41:55;29.73;;;18.80;;
24337;SDS011;12457;50.832;4.346;2022-12-07T02:44:26;29.50;;;20.88;;
24337;SDS011;12457;50.832;4.346;2022-12-07T02:47:01;29.73;;;20.58;;
24337;SDS011;12457;50.832;4.346;2022-12-07T02:49:30;29.25;;;19.77;;
24337;SDS011;12457;50.832;4.346;2022-12-07T02:51:57;30.27;;;20.33;;
24337;SDS011;12457;50.832;4.346;2022-12-07T02:54:23;28.85;;;19.80;;
24337;SDS011;12457;50.832;4.346;2022-12-07T02:56:53;34.35;;;19.90;;
24337;SDS011;12457;50.832;4.346;2022-12-07T03:13:25;32.33;;;20.65;;
24337;SDS011;12457;50.832;4.346;2022-12-07T03:18:35;29.35;;;19.50;;
24337;SDS011;12457;50.832;4.346;2022-12-07T03:21:05;26.65;;;18.70;;
24337;SDS011;12457;50.832;4.346;2022-12-07T03:23:37;29.17;;;19.80;;
24337;SDS011;12457;50.832;4.346;2022-12-07T03:26:05;29.27;;;19.75;;
24337;SDS011;12457;50.832;4.346;2022-12-07T03:28:35;41.03;;;20.77;;
24337;SDS011;12457;50.832;4.346;2022-12-07T03:31:06;42.97;;;22.88;;
24337;SDS011;12457;50.832;4.346;2022-12-07T03:33:45;34.60;;;21.40;;
24337;SDS011;12457;50.832;4.346;2022-12-07T03:36:29;32.45;;;21.33;;
24337;SDS011;12457;50.832;4.346;2022-12-07T03:41:49;40.58;;;22.65;;
24337;SDS011;12457;50.832;4.346;2022-12-07T03:44:16;32.85;;;20.20;;
24337;SDS011;12457;50.832;4.346;2022-12-07T03:46:56;33.38;;;21.25;;
24337;SDS011;12457;50.832;4.346;2022-12-07T03:57:19;27.48;;;17.77;;
24337;SDS011;12457;50.832;4.346;2022-12-07T03:59:47;29.15;;;18.20;;
24337;SDS011;12457;50.832;4.346;2022-12-07T04:02:13;26.85;;;18.10;;
24337;SDS011;12457;50.832;4.346;2022-12-07T04:04:39;35.20;;;18.20;;
24337;SDS011;12457;50.832;4.346;2022-12-07T04:07:07;32.95;;;18.52;;
24337;SDS011;12457;50.832;4.346;2022-12-07T04:09:32;30.70;;;18.83;;
24337;SDS011;12457;50.832;4.346;2022-12-07T04:11:58;25.42;;;18.90;;
24337;SDS011;12457;50.832;4.346;2022-12-07T04:14:25;35.60;;;20.90;;
24337;SDS011;12457;50.832;4.346;2022-12-07T04:16:51;31.08;;;20.42;;
24337;SDS011;12457;50.832;4.346;2022-12-07T04:19:25;31.95;;;19.63;;
24337;SDS011;12457;50.832;4.346;2022-12-07T04:21:55;32.33;;;20.25;;
24337;SDS011;12457;50.832;4.346;2022-12-07T04:24:22;34.30;;;21.23;;
24337;SDS011;12457;50.832;4.346;2022-12-07T04:26:48;43.17;;;23.25;;
24337;SDS011;12457;50.832;4.346;2022-12-07T04:29:15;35.05;;;23.60;;
24337;SDS011;12457;50.832;4.346;2022-12-07T04:31:41;34.50;;;24.02;;
24337;SDS011;12457;50.832;4.346;2022-12-07T04:34:07;37.80;;;24.45;;
24337;SDS011;12457;50.832;4.346;2022-12-07T04:36:33;36.17;;;24.20;;
24337;SDS011;12457;50.832;4.346;2022-12-07T04:39:00;42.85;;;26.27;;
24337;SDS011;12457;50.832;4.346;2022-12-07T04:41:26;36.22;;;23.60;;
24337;SDS011;12457;50.832;4.346;2022-12-07T04:44:00;44.78;;;26.05;;
24337;SDS011;12457;50.832;4.346;2022-12-07T04:46:28;37.08;;;25.23;;
24337;SDS011;12457;50.832;4.346;2022-12-07T04:48:54;42.65;;;25.60;;
24337;SDS011;12457;50.832;4.346;2022-12-07T04:51:22;36.22;;;23.90;;
24337;SDS011;12457;50.832;4.346;2022-12-07T04:53:49;38.63;;;24.40;;
24337;SDS011;12457;50.832;4.346;2022-12-07T04:56:15;35.47;;;22.80;;
24337;SDS011;12457;50.832;4.346;2022-12-07T04:58:42;39.70;;;23.77;;
24337;SDS011;12457;50.832;4.346;2022-12-07T05:01:09;31.65;;;21.90;;
24337;SDS011;12457;50.832;4.346;2022-12-07T05:03:35;34.47;;;22.40;;
24337;SDS011;12457;50.832;4.346;2022-12-07T05:06:02;31.27;;;21.38;;
24337;SDS011;12457;50.832;4.346;2022-12-07T05:08:28;33.42;;;22.65;;
24337;SDS011;12457;50.832;4.346;2022-12-07T05:10:54;30.08;;;23.02;;
24337;SDS011;12457;50.832;4.346;2022-12-07T05:13:20;35.50;;;22.30;;
24337;SDS011;12457;50.832;4.346;2022-12-07T05:15:49;37.88;;;22.90;;
24337;SDS011;12457;50.832;4.346;2022-12-07T05:18:15;35.17;;;22.73;;
24337;SDS011;12457;50.832;4.346;2022-12-07T05:20:41;38.40;;;23.38;;
24337;SDS011;12457;50.832;4.346;2022-12-07T05:23:07;36.80;;;22.83;;
24337;SDS011;12457;50.832;4.346;2022-12-07T05:25:33;37.13;;;24.40;;
24337;SDS011;12457;50.832;4.346;2022-12-07T05:27:59;38.97;;;24.75;;
24337;SDS011;12457;50.832;4.346;2022-12-07T05:30:25;37.58;;;24.17;;
24337;SDS011;12457;50.832;4.346;2022-12-07T05:32:51;42.40;;;24.00;;
24337;SDS011;12457;50.832;4.346;2022-12-07T05:35:17;36.88;;;24.90;;
24337;SDS011;12457;50.832;4.346;2022-12-07T05:37:44;33.30;;;22.80;;
24337;SDS011;12457;50.832;4.346;2022-12-07T05:40:10;44.83;;;25.33;;
24337;SDS011;12457;50.832;4.346;2022-12-07T05:42:37;36.42;;;23.50;;
24337;SDS011;12457;50.832;4.346;2022-12-07T05:45:03;40.78;;;22.85;;
24337;SDS011;12457;50.832;4.346;2022-12-07T05:47:29;36.55;;;22.90;;
24337;SDS011;12457;50.832;4.346;2022-12-07T05:49:55;36.40;;;21.92;;
24337;SDS011;12457;50.832;4.346;2022-12-07T05:52:21;36.38;;;22.10;;
24337;SDS011;12457;50.832;4.346;2022-12-07T05:54:47;36.65;;;22.10;;
24337;SDS011;12457;50.832;4.346;2022-12-07T05:57:14;34.05;;;22.45;;
24337;SDS011;12457;50.832;4.346;2022-12-07T05:59:39;39.08;;;23.75;;
24337;SDS011;12457;50.832;4.346;2022-12-07T06:02:09;38.50;;;22.67;;
24337;SDS011;12457;50.832;4.346;2022-12-07T06:04:38;38.10;;;23.73;;
24337;SDS011;12457;50.832;4.346;2022-12-07T06:07:05;29.58;;;21.48;;
24337;SDS011;12457;50.832;4.346;2022-12-07T06:09:32;34.95;;;23.13;;
24337;SDS011;12457;50.832;4.346;2022-12-07T06:11:58;33.47;;;23.95;;
24337;SDS011;12457;50.832;4.346;2022-12-07T06:14:43;34.38;;;21.85;;
24337;SDS011;12457;50.832;4.346;2022-12-07T06:17:09;32.70;;;22.15;;
24337;SDS011;12457;50.832;4.346;2022-12-07T06:19:35;40.58;;;22.70;;
24337;SDS011;12457;50.832;4.346;2022-12-07T06:22:01;33.63;;;21.92;;
24337;SDS011;12457;50.832;4.346;2022-12-07T06:24:29;35.42;;;19.80;;
24337;SDS011;12457;50.832;4.346;2022-12-07T06:26:58;30.60;;;19.75;;
24337;SDS011;12457;50.832;4.346;2022-12-07T06:29:24;35.03;;;20.75;;
24337;SDS011;12457;50.832;4.346;2022-12-07T06:31:50;29.90;;;18.65;;
24337;SDS011;12457;50.832;4.346;2022-12-07T06:34:17;25.08;;;18.00;;
24337;SDS011;12457;50.832;4.346;2022-12-07T06:36:45;28.52;;;17.48;;
24337;SDS011;12457;50.832;4.346;2022-12-07T06:39:12;24.90;;;17.25;;
24337;SDS011;12457;50.832;4.346;2022-12-07T06:41:38;26.38;;;17.77;;
24337;SDS011;12457;50.832;4.346;2022-12-07T06:44:05;26.60;;;16.80;;
24337;SDS011;12457;50.832;4.346;2022-12-07T06:46:31;25.52;;;17.67;;
24337;SDS011;12457;50.832;4.346;2022-12-07T06:48:57;33.45;;;18.73;;
24337;SDS011;12457;50.832;4.346;2022-12-07T06:51:23;28.42;;;18.45;;
24337;SDS011;12457;50.832;4.346;2022-12-07T06:53:49;25.17;;;17.30;;
24337;SDS011;12457;50.832;4.346;2022-12-07T06:56:14;28.58;;;17.40;;
24337;SDS011;12457;50.832;4.346;2022-12-07T06:58:40;31.58;;;16.60;;
24337;SDS011;12457;50.832;4.346;2022-12-07T07:01:13;23.17;;;15.63;;
24337;SDS011;12457;50.832;4.346;2022-12-07T07:03:40;29.00;;;14.85;;
24337;SDS011;12457;50.832;4.346;2022-12-07T07:06:06;24.40;;;15.15;;
24337;SDS011;12457;50.832;4.346;2022-12-07T07:08:33;21.42;;;15.38;;
24337;SDS011;12457;50.832;4.346;2022-12-07T07:10:59;28.58;;;16.38;;
24337;SDS011;12457;50.832;4.346;2022-12-07T07:13:25;30.50;;;16.65;;
24337;SDS011;12457;50.832;4.346;2022-12-07T07:15:51;28.42;;;17.15;;
24337;SDS011;12457;50.832;4.346;2022-12-07T07:18:17;27.30;;;17.17;;
24337;SDS011;12457;50.832;4.346;2022-12-07T07:20:42;30.60;;;17.77;;
24337;SDS011;12457;50.832;4.346;2022-12-07T07:23:08;27.23;;;17.55;;
24337;SDS011;12457;50.832;4.346;2022-12-07T07:25:34;28.58;;;19.73;;
24337;SDS011;12457;50.832;4.346;2022-12-07T07:28:00;39.95;;;19.65;;
24337;SDS011;12457;50.832;4.346;2022-12-07T07:30:26;35.33;;;20.33;;
24337;SDS011;12457;50.832;4.346;2022-12-07T07:32:55;34.08;;;18.63;;
24337;SDS011;12457;50.832;4.346;2022-12-07T07:35:26;28.58;;;19.88;;
24337;SDS011;12457;50.832;4.346;2022-12-07T07:37:52;38.08;;;19.95;;
24337;SDS011;12457;50.832;4.346;2022-12-07T07:40:18;35.95;;;21.23;;
24337;SDS011;12457;50.832;4.346;2022-12-07T07:42:46;88.80;;;28.52;;
24337;SDS011;12457;50.832;4.346;2022-12-07T07:45:15;75.70;;;26.40;;
24337;SDS011;12457;50.832;4.346;2022-12-07T07:47:42;44.47;;;21.20;;
24337;SDS011;12457;50.832;4.346;2022-12-07T07:50:07;29.52;;;20.00;;
24337;SDS011;12457;50.832;4.346;2022-12-07T07:52:33;30.38;;;19.75;;
24337;SDS011;12457;50.832;4.346;2022-12-07T07:54:59;35.35;;;19.88;;
24337;SDS011;12457;50.832;4.346;2022-12-07T07:57:25;33.72;;;21.50;;
24337;SDS011;12457;50.832;4.346;2022-12-07T07:59:50;32.58;;;18.90;;
24337;SDS011;12457;50.832;4.346;2022-12-07T08:02:17;30.63;;;19.75;;
24337;SDS011;12457;50.832;4.346;2022-12-07T08:04:44;29.10;;;19.02;;
24337;SDS011;12457;50.832;4.346;2022-12-07T08:07:10;27.60;;;18.80;;
24337;SDS011;12457;50.832;4.346;2022-12-07T08:09:37;28.30;;;17.00;;
24337;SDS011;12457;50.832;4.346;2022-12-07T08:12:03;28.00;;;17.25;;
24337;SDS011;12457;50.832;4.346;2022-12-07T08:14:29;31.95;;;17.67;;
24337;SDS011;12457;50.832;4.346;2022-12-07T08:16:54;28.80;;;17.77;;
24337;SDS011;12457;50.832;4.346;2022-12-07T08:19:20;34.95;;;17.88;;
24337;SDS011;12457;50.832;4.346;2022-12-07T08:21:46;35.58;;;17.85;;
24337;SDS011;12457;50.832;4.346;2022-12-07T08:24:11;30.25;;;18.13;;
24337;SDS011;12457;50.832;4.346;2022-12-07T08:26:37;43.97;;;19.38;;
24337;SDS011;12457;50.832;4.346;2022-12-07T08:29:03;37.38;;;18.58;;
24337;SDS011;12457;50.832;4.346;2022-12-07T08:31:29;35.42;;;19.73;;
24337;SDS011;12457;50.832;4.346;2022-12-07T08:33:55;32.90;;;18.85;;
24337;SDS011;12457;50.832;4.346;2022-12-07T08:36:20;36.58;;;19.55;;
24337;SDS011;12457;50.832;4.346;2022-12-07T08:38:47;39.03;;;20.52;;
24337;SDS011;12457;50.832;4.346;2022-12-07T08:41:13;35.88;;;20.25;;
24337;SDS011;12457;50.832;4.346;2022-12-07T08:43:40;40.95;;;22.40;;
24337;SDS011;12457;50.832;4.346;2022-12-07T08:46:13;36.80;;;22.52;;
24337;SDS011;12457;50.832;4.346;2022-12-07T08:49:05;35.60;;;21.17;;
24337;SDS011;12457;50.832;4.346;2022-12-07T08:51:36;31.73;;;20.17;;
24337;SDS011;12457;50.832;4.346;2022-12-07T08:54:04;33.85;;;19.50;;
24337;SDS011;12457;50.832;4.346;2022-12-07T08:56:33;31.73;;;18.65;;
24337;SDS011;12457;50.832;4.346;2022-12-07T08:58:59;31.38;;;18.92;;
24337;SDS011;12457;50.832;4.346;2022-12-07T09:01:25;31.30;;;17.13;;
24337;SDS011;12457;50.832;4.346;2022-12-07T09:03:51;36.88;;;18.00;;
24337;SDS011;12457;50.832;4.346;2022-12-07T09:06:17;25.92;;;16.90;;
24337;SDS011;12457;50.832;4.346;2022-12-07T09:08:45;32.28;;;17.92;;
24337;SDS011;12457;50.832;4.346;2022-12-07T09:11:13;26.52;;;16.25;;
24337;SDS011;12457;50.832;4.346;2022-12-07T09:13:39;30.02;;;14.85;;
24337;SDS011;12457;50.832;4.346;2022-12-07T09:16:06;27.25;;;15.25;;
24337;SDS011;12457;50.832;4.346;2022-12-07T09:18:32;24.33;;;15.40;;
24337;SDS011;12457;50.832;4.346;2022-12-07T09:20:58;32.15;;;15.13;;
24337;SDS011;12457;50.832;4.346;2022-12-07T09:23:23;31.55;;;15.93;;
24337;SDS011;12457;50.832;4.346;2022-12-07T09:25:50;23.45;;;14.20;;
24337;SDS011;12457;50.832;4.346;2022-12-07T09:28:16;25.50;;;14.45;;
24337;SDS011;12457;50.832;4.346;2022-12-07T09:30:45;26.65;;;15.63;;
24337;SDS011;12457;50.832;4.346;2022-12-07T09:33:12;27.42;;;14.43;;
24337;SDS011;12457;50.832;4.346;2022-12-07T09:35:43;27.92;;;15.55;;
24337;SDS011;12457;50.832;4.346;2022-12-07T09:38:12;26.58;;;15.90;;
24337;SDS011;12457;50.832;4.346;2022-12-07T09:40:39;29.70;;;14.73;;
24337;SDS011;12457;50.832;4.346;2022-12-07T09:43:11;27.73;;;14.35;;
24337;SDS011;12457;50.832;4.346;2022-12-07T09:45:43;24.98;;;12.73;;
24337;SDS011;12457;50.832;4.346;2022-12-07T09:48:14;30.75;;;18.33;;
24337;SDS011;12457;50.832;4.346;2022-12-07T09:50:43;19.83;;;12.90;;
24337;SDS011;12457;50.832;4.346;2022-12-07T09:53:13;19.33;;;12.48;;
24337;SDS011;12457;50.832;4.346;2022-12-07T09:55:45;22.42;;;12.60;;
24337;SDS011;12457;50.832;4.346;2022-12-07T09:58:16;22.40;;;12.25;;
24337;SDS011;12457;50.832;4.346;2022-12-07T10:00:50;23.80;;;11.57;;
24337;SDS011;12457;50.832;4.346;2022-12-07T10:03:18;18.77;;;11.55;;
24337;SDS011;12457;50.832;4.346;2022-12-07T10:05:45;21.27;;;10.75;;
24337;SDS011;12457;50.832;4.346;2022-12-07T10:08:14;18.83;;;10.93;;
24337;SDS011;12457;50.832;4.346;2022-12-07T10:10:42;25.00;;;11.73;;
24337;SDS011;12457;50.832;4.346;2022-12-07T10:16:00;20.67;;;12.30;;
24337;SDS011;12457;50.832;4.346;2022-12-07T10:21:08;20.60;;;11.90;;
24337;SDS011;12457;50.832;4.346;2022-12-07T10:24:04;21.95;;;10.68;;
24337;SDS011;12457;50.832;4.346;2022-12-07T10:29:14;18.95;;;11.93;;
24337;SDS011;12457;50.832;4.346;2022-12-07T10:32:03;22.35;;;12.93;;
24337;SDS011;12457;50.832;4.346;2022-12-07T10:37:16;23.17;;;14.50;;
24337;SDS011;12457;50.832;4.346;2022-12-07T10:39:47;24.77;;;13.18;;
24337;SDS011;12457;50.832;4.346;2022-12-07T10:42:28;19.13;;;13.15;;
24337;SDS011;12457;50.832;4.346;2022-12-07T10:45:14;17.05;;;10.00;;
24337;SDS011;12457;50.832;4.346;2022-12-07T10:47:51;24.15;;;10.13;;
24337;SDS011;12457;50.832;4.346;2022-12-07T10:50:34;23.55;;;12.90;;
24337;SDS011;12457;50.832;4.346;2022-12-07T11:18:40;18.40;;;8.23;;
24337;SDS011;12457;50.832;4.346;2022-12-07T11:21:27;16.50;;;7.97;;
24337;SDS011;12457;50.832;4.346;2022-12-07T11:24:02;19.00;;;7.90;;
24337;SDS011;12457;50.832;4.346;2022-12-07T11:37:59;15.05;;;6.45;;
24337;SDS011;12457;50.832;4.346;2022-12-07T11:40:34;17.77;;;6.35;;
24337;SDS011;12457;50.832;4.346;2022-12-07T11:43:05;14.57;;;7.15;;
24337;SDS011;12457;50.832;4.346;2022-12-07T11:45:33;14.65;;;7.05;;
24337;SDS011;12457;50.832;4.346;2022-12-07T11:50:42;20.98;;;7.18;;
24337;SDS011;12457;50.832;4.346;2022-12-07T11:56:11;12.85;;;6.45;;
24337;SDS011;12457;50.832;4.346;2022-12-07T12:06:34;18.25;;;6.45;;
24337;SDS011;12457;50.832;4.346;2022-12-07T12:09:22;11.25;;;6.22;;
24337;SDS011;12457;50.832;4.346;2022-12-07T12:11:56;9.07;;;5.70;;
24337;SDS011;12457;50.832;4.346;2022-12-07T12:25:46;11.13;;;4.70;;
24337;SDS011;12457;50.832;4.346;2022-12-07T12:28:25;12.32;;;4.20;;
24337;SDS011;12457;50.832;4.346;2022-12-07T12:33:51;7.63;;;3.45;;
24337;SDS011;12457;50.832;4.346;2022-12-07T12:36:20;11.23;;;4.03;;
24337;SDS011;12457;50.832;4.346;2022-12-07T12:39:14;10.10;;;4.18;;
24337;SDS011;12457;50.832;4.346;2022-12-07T12:51:45;14.43;;;4.07;;
24337;SDS011;12457;50.832;4.346;2022-12-07T12:56:52;14.65;;;4.88;;
24337;SDS011;12457;50.832;4.346;2022-12-07T12:59:33;15.50;;;5.22;;
24337;SDS011;12457;50.832;4.346;2022-12-07T13:12:58;9.75;;;3.10;;
24337;SDS011;12457;50.832;4.346;2022-12-07T13:15:39;22.70;;;4.28;;
24337;SDS011;12457;50.832;4.346;2022-12-07T13:20:56;8.43;;;3.03;;
24337;SDS011;12457;50.832;4.346;2022-12-07T13:26:06;18.80;;;4.35;;
24337;SDS011;12457;50.832;4.346;2022-12-07T13:28:38;13.82;;;3.95;;
24337;SDS011;12457;50.832;4.346;2022-12-07T13:41:41;18.08;;;5.25;;
24337;SDS011;12457;50.832;4.346;2022-12-07T13:44:12;15.48;;;3.72;;
24337;SDS011;12457;50.832;4.346;2022-12-07T13:49:32;11.60;;;3.65;;
24337;SDS011;12457;50.832;4.346;2022-12-07T13:52:35;15.60;;;5.07;;
24337;SDS011;12457;50.832;4.346;2022-12-07T13:57:38;21.38;;;4.75;;
24337;SDS011;12457;50.832;4.346;2022-12-07T14:00:05;15.35;;;3.92;;
24337;SDS011;12457;50.832;4.346;2022-12-07T14:03:04;17.50;;;4.35;;
24337;SDS011;12457;50.832;4.346;2022-12-07T14:05:46;14.63;;;3.83;;
24337;SDS011;12457;50.832;4.346;2022-12-07T14:08:29;15.60;;;4.70;;
24337;SDS011;12457;50.832;4.346;2022-12-07T14:10:55;14.45;;;3.67;;
24337;SDS011;12457;50.832;4.346;2022-12-07T14:15:54;13.55;;;3.45;;
24337;SDS011;12457;50.832;4.346;2022-12-07T14:18:36;6.90;;;2.80;;
24337;SDS011;12457;50.832;4.346;2022-12-07T14:23:35;11.07;;;3.90;;
24337;SDS011;12457;50.832;4.346;2022-12-07T14:26:20;10.15;;;3.22;;
24337;SDS011;12457;50.832;4.346;2022-12-07T14:28:47;9.63;;;3.45;;
24337;SDS011;12457;50.832;4.346;2022-12-07T14:31:13;6.90;;;3.30;;
24337;SDS011;12457;50.832;4.346;2022-12-07T14:33:41;7.80;;;3.22;;
24337;SDS011;12457;50.832;4.346;2022-12-07T14:36:10;9.32;;;3.40;;
24337;SDS011;12457;50.832;4.346;2022-12-07T14:38:37;6.35;;;2.95;;
24337;SDS011;12457;50.832;4.346;2022-12-07T14:41:04;3.35;;;2.55;;
24337;SDS011;12457;50.832;4.346;2022-12-07T14:43:55;6.03;;;2.58;;
24337;SDS011;12457;50.832;4.346;2022-12-07T14:46:21;10.05;;;3.92;;
24337;SDS011;12457;50.832;4.346;2022-12-07T14:48:46;12.55;;;4.82;;
24337;SDS011;12457;50.832;4.346;2022-12-07T14:51:13;7.72;;;4.05;;
24337;SDS011;12457;50.832;4.346;2022-12-07T14:53:41;7.68;;;3.67;;
24337;SDS011;12457;50.832;4.346;2022-12-07T14:56:10;6.78;;;3.35;;
24337;SDS011;12457;50.832;4.346;2022-12-07T14:58:36;12.55;;;3.75;;
24337;SDS011;12457;50.832;4.346;2022-12-07T15:01:02;16.73;;;4.03;;
24337;SDS011;12457;50.832;4.346;2022-12-07T15:03:28;7.63;;;3.45;;
24337;SDS011;12457;50.832;4.346;2022-12-07T15:05:54;8.10;;;3.60;;
24337;SDS011;12457;50.832;4.346;2022-12-07T15:08:20;9.02;;;3.67;;
24337;SDS011;12457;50.832;4.346;2022-12-07T15:10:46;10.68;;;3.83;;
24337;SDS011;12457;50.832;4.346;2022-12-07T15:13:12;7.55;;;4.05;;
24337;SDS011;12457;50.832;4.346;2022-12-07T15:15:56;9.40;;;4.17;;
24337;SDS011;12457;50.832;4.346;2022-12-07T15:18:22;11.68;;;4.60;;
24337;SDS011;12457;50.832;4.346;2022-12-07T15:20:49;9.90;;;3.75;;
24337;SDS011;12457;50.832;4.346;2022-12-07T15:23:15;7.85;;;3.42;;
24337;SDS011;12457;50.832;4.346;2022-12-07T15:25:41;14.98;;;3.72;;
24337;SDS011;12457;50.832;4.346;2022-12-07T15:28:12;13.98;;;4.70;;
24337;SDS011;12457;50.832;4.346;2022-12-07T15:30:38;11.85;;;4.30;;
24337;SDS011;12457;50.832;4.346;2022-12-07T15:33:05;13.40;;;4.90;;
24337;SDS011;12457;50.832;4.346;2022-12-07T15:35:31;15.20;;;5.70;;
24337;SDS011;12457;50.832;4.346;2022-12-07T15:37:57;13.07;;;4.88;;
24337;SDS011;12457;50.832;4.346;2022-12-07T15:40:22;16.45;;;6.05;;
24337;SDS011;12457;50.832;4.346;2022-12-07T15:42:48;7.88;;;4.68;;
24337;SDS011;12457;50.832;4.346;2022-12-07T15:45:13;10.73;;;5.07;;
24337;SDS011;12457;50.832;4.346;2022-12-07T15:47:40;12.48;;;5.10;;
24337;SDS011;12457;50.832;4.346;2022-12-07T15:50:11;13.40;;;6.03;;
24337;SDS011;12457;50.832;4.346;2022-12-07T15:52:38;11.93;;;5.95;;
24337;SDS011;12457;50.832;4.346;2022-12-07T15:55:05;13.77;;;6.30;;
24337;SDS011;12457;50.832;4.346;2022-12-07T15:57:31;14.45;;;6.72;;
24337;SDS011;12457;50.832;4.346;2022-12-07T16:00:02;11.27;;;6.55;;
24337;SDS011;12457;50.832;4.346;2022-12-07T16:02:29;11.85;;;7.15;;
24337;SDS011;12457;50.832;4.346;2022-12-07T16:04:54;11.57;;;7.45;;
24337;SDS011;12457;50.832;4.346;2022-12-07T16:07:20;18.25;;;7.18;;
24337;SDS011;12457;50.832;4.346;2022-12-07T16:09:46;12.25;;;6.35;;
24337;SDS011;12457;50.832;4.346;2022-12-07T16:12:12;9.40;;;6.18;;
24337;SDS011;12457;50.832;4.346;2022-12-07T16:14:39;15.23;;;7.05;;
24337;SDS011;12457;50.832;4.346;2022-12-07T16:17:06;18.80;;;6.85;;
24337;SDS011;12457;50.832;4.346;2022-12-07T16:19:33;14.05;;;6.45;;
24337;SDS011;12457;50.832;4.346;2022-12-07T16:21:59;15.98;;;7.07;;
24337;SDS011;12457;50.832;4.346;2022-12-07T16:24:25;13.35;;;7.43;;
24337;SDS011;12457;50.832;4.346;2022-12-07T16:26:51;15.70;;;7.15;;
24337;SDS011;12457;50.832;4.346;2022-12-07T16:29:18;13.70;;;7.70;;
24337;SDS011;12457;50.832;4.346;2022-12-07T16:31:45;15.43;;;9.00;;
24337;SDS011;12457;50.832;4.346;2022-12-07T16:34:11;17.42;;;8.60;;
24337;SDS011;12457;50.832;4.346;2022-12-07T16:36:37;15.48;;;8.23;;
24337;SDS011;12457;50.832;4.346;2022-12-07T16:39:03;21.58;;;9.98;;
24337;SDS011;12457;50.832;4.346;2022-12-07T16:41:29;14.55;;;7.93;;
24337;SDS011;12457;50.832;4.346;2022-12-07T16:43:55;15.27;;;7.15;;
24337;SDS011;12457;50.832;4.346;2022-12-07T16:46:21;19.38;;;8.07;;
24337;SDS011;12457;50.832;4.346;2022-12-07T16:48:47;16.70;;;9.35;;
24337;SDS011;12457;50.832;4.346;2022-12-07T16:51:13;12.63;;;8.05;;
24337;SDS011;12457;50.832;4.346;2022-12-07T16:53:40;13.85;;;8.98;;
24337;SDS011;12457;50.832;4.346;2022-12-07T16:56:10;17.48;;;9.18;;
24337;SDS011;12457;50.832;4.346;2022-12-07T16:58:38;14.40;;;9.50;;
24337;SDS011;12457;50.832;4.346;2022-12-07T17:01:17;15.60;;;9.07;;
24337;SDS011;12457;50.832;4.346;2022-12-07T17:03:45;14.98;;;8.50;;
24337;SDS011;12457;50.832;4.346;2022-12-07T17:06:12;20.38;;;11.05;;
24337;SDS011;12457;50.832;4.346;2022-12-07T17:08:39;14.65;;;10.25;;
24337;SDS011;12457;50.832;4.346;2022-12-07T17:11:09;23.67;;;11.50;;
24337;SDS011;12457;50.832;4.346;2022-12-07T17:13:39;19.02;;;10.35;;
24337;SDS011;12457;50.832;4.346;2022-12-07T17:16:23;17.48;;;10.55;;
24337;SDS011;12457;50.832;4.346;2022-12-07T17:18:49;16.20;;;9.68;;
24337;SDS011;12457;50.832;4.346;2022-12-07T17:21:15;15.20;;;10.20;;
24337;SDS011;12457;50.832;4.346;2022-12-07T17:23:41;13.20;;;8.30;;